CYTZ

Toronto / City Centre Airport

Toronto, , Canada
METAR CYTZ 201027Z AUTO 34015G21KT 6SM -SN OVC026 M16/M20 A2983 RMK SLP108
Observed Flight Rules
Jan-20 @ 10:27 UTC (30 minutes ago) Marginal Visual Flight Rules
Wind Visibility Clouds Conditions
340° at 15 knots
 Gusting to 21 knots
6 miles
  • Overcast at 2,600' AGL
  • Light Snow
Temperatures Readings
Current -16°C / 3°F
Dewpoint -20°C / -4°F
Humidity 72%
Altimeter 29.83" Hg
Pressure 1010.8 hPa
Elevation 77
METAR CYTZ 201027Z AUTO 34015G21KT 6SM -SN OVC026 M16/M20 A2983 RMK SLP108
Observed Flight Rules
Jan-20 @ 10:27 UTC
(30 minutes ago)
MVFR
Wind Visibility
340° at 15 knots
 Gusting to 21 knots
6 miles
Clouds
  • Overcast at 2,600' AGL
Conditions
  • Light Snow
Temperature Dewpoint
-16°C / 3°F -20°C / -4°F
Humidity Altimeter Pressure
72% 29.83" Hg 1010.8 hPa